TimePST,TemperatureF,Dew PointF,Humidity,Sea Level PressureIn,VisibilityMPH,Wind Direction,Wind SpeedMPH,Gust SpeedMPH,PrecipitationIn,Events,Conditions,WindDirDegrees,DateUTC
12:53 AM,50.0,46.9,89,30.18,10.0,SSW,12.7,-,N/A,,Overcast,210,2012-11-04 07:53:00
1:53 AM,48.9,46.9,93,30.19,10.0,SSW,8.1,-,N/A,,Overcast,200,2012-11-04 08:53:00
1:53 AM,48.9,46.9,93,30.22,10.0,SSE,3.5,-,N/A,,Overcast,160,2012-11-04 09:53:00
2:53 AM,48.9,46.9,93,30.22,10.0,Calm,Calm,-,N/A,,Overcast,0,2012-11-04 10:53:00
3:53 AM,48.0,46.0,93,30.23,10.0,SSE,6.9,-,N/A,,Overcast,150,2012-11-04 11:53:00
4:53 AM,48.0,46.9,96,30.25,10.0,South,4.6,-,N/A,,Overcast,180,2012-11-04 12:53:00
5:53 AM,48.0,46.9,96,30.26,10.0,SSE,4.6,-,0.00,Rain,Light Rain,150,2012-11-04 13:53:00
6:53 AM,48.0,46.0,93,30.28,10.0,SSE,5.8,-,0.01,Fog-Rain,Light Rain,160,2012-11-04 14:53:00
7:53 AM,48.9,46.9,93,30.31,10.0,SSE,8.1,-,N/A,Fog,Mostly Cloudy,160,2012-11-04 15:53:00
8:53 AM,50.0,48.0,93,30.30,10.0,SSE,6.9,-,N/A,Fog,Mostly Cloudy,160,2012-11-04 16:53:00
9:53 AM,53.1,48.9,86,30.31,10.0,SSE,9.2,-,N/A,,Mostly Cloudy,160,2012-11-04 17:53:00
10:53 AM,54.0,50.0,86,30.32,10.0,South,8.1,-,N/A,,Overcast,170,2012-11-04 18:53:00
10:56 AM,53.6,48.2,82,30.31,10.0,South,6.9,-,N/A,,Overcast,180,2012-11-04 18:56:00
11:53 AM,55.9,48.9,77,30.31,10.0,South,8.1,-,N/A,,Overcast,180,2012-11-04 19:53:00
12:53 PM,57.0,48.9,74,30.30,10.0,South,9.2,-,N/A,,Overcast,180,2012-11-04 20:53:00
1:53 PM,57.0,48.9,74,30.31,10.0,SSW,11.5,-,N/A,,Overcast,200,2012-11-04 21:53:00
2:53 PM,57.0,48.9,74,30.32,10.0,South,5.8,-,N/A,,Overcast,180,2012-11-04 22:53:00
3:53 PM,55.9,48.9,77,30.32,10.0,South,4.6,-,N/A,,Overcast,190,2012-11-04 23:53:00
4:53 PM,55.9,48.9,77,30.30,10.0,SSE,5.8,-,N/A,,Overcast,160,2012-11-05 00:53:00
5:53 PM,55.0,48.9,80,30.29,10.0,SSE,8.1,-,N/A,,Overcast,150,2012-11-05 01:53:00
6:53 PM,55.0,48.0,77,30.31,10.0,South,6.9,-,N/A,,Overcast,170,2012-11-05 02:53:00
7:39 PM,55.4,48.2,77,30.29,10.0,SSE,6.9,-,N/A,,Overcast,150,2012-11-05 03:39:00
7:53 PM,54.0,48.0,80,30.29,10.0,SE,8.1,-,N/A,,Overcast,140,2012-11-05 03:53:00
8:53 PM,53.1,46.9,80,30.29,10.0,South,5.8,-,N/A,,Overcast,170,2012-11-05 04:53:00
9:12 PM,53.6,48.2,82,30.28,10.0,South,8.1,-,N/A,,Overcast,170,2012-11-05 05:12:00
9:53 PM,54.0,48.0,80,30.29,10.0,South,6.9,-,N/A,,Overcast,170,2012-11-05 05:53:00
10:25 PM,53.6,48.2,82,30.26,10.0,South,11.5,-,N/A,,Scattered Clouds,180,2012-11-05 06:25:00
10:53 PM,53.1,48.0,83,30.26,10.0,South,8.1,-,N/A,,Scattered Clouds,180,2012-11-05 06:53:00